Vaughan, Canada
Current Conditions -  °F | °C
As of 10:00 AM on Saturday 25 Oct 2014 (Local Time) from CYYZ Reporting Station
Broken Clouds Broken Clouds  
Wind Chill: 57°   Ceiling: 11000
Heat Index: 57°   Visibility: 10mi
Dew Point: 48°   Wind: 12mph
Humidity: 72%   Direction: 210°SSW
Pressure: 29.71"   Gusts: 20mph
Location:  43.79°N, 79.54°W
Report Text: CYYZ 251400Z 21010G17KT 10SM BKN110 BKN220 14/09 A2971 RMK AC5CI1 PRESFR SLP062 DENSITY ALT 700FT
Loading
Personal Weather Stations






























Interactive Weather Map
Tropical Storm Tracking
New forecast layout! Learn more

10-Day Weather Forecast

Advertisements
Track Severe Weather on mobile